Main page
METAR-TAF:

METAR-TAF

Airports :

Cork Airport

Cork, Ireland

latitude: 51-51N, longitude: 008-29W, elevation: 153 m

Current weather observation

The report was made 34 minutes ago, at 20:00 UTC
Wind 7 kt from the South/Southwest
Temperature 14°C
Humidity 77%
Pressure 1032 hPa
Visibility 10 km or more
Few clouds at a height of 2500 ft

METAR: EICK 222000Z 21007KT 9999 FEW025 14/10 Q1032 NOSIG

Time: 21:34 (20:34 UTC)

Forecast

The report was made 3 hours and 34 minutes ago, at 17:00 UTC
Forecast valid from 22 at 18 UTC to 23 at 18 UTC
Wind 8 kt from the Southwest
Visibility 10 km or more
Few clouds at a height of 3500 ft
Becoming
from 23 at 00 UTC to 23 at 02 UTC
Wind 10 kt from the North/Northwest
Becoming
from 23 at 06 UTC to 23 at 09 UTC
Wind 3 kt from variable directions
Becoming
from 23 at 12 UTC to 23 at 14 UTC
Wind 10 kt from the South

TAF: EICK 221700Z 2218/2318 22008KT 9999 FEW035 BECMG 2300/2302 33010KT BECMG 2306/2309 VRB03KT BECMG 2312/2314 19010KT

Weather observations and forecasts of more than 4000 airports (METAR and TAF reports).

The available stations are represented by yellow and red dots on the map.

Hover mouse over dot to see the name of the station.

Then click to see weather observations and forecasts.

To change the map : click on the green buttons with a black cross to zoom in, on the green button with a dash to zoom out, or on the green arrows for adjacent maps.


METAR-TAF: